createdAt,value
2023-05-13T00:01:50.081Z,69.06
2023-05-13T00:04:16.777Z,71.32
2023-05-13T00:06:44.560Z,71.21
2023-05-13T00:09:11.621Z,72.91
2023-05-13T00:11:38.217Z,73.23
2023-05-13T00:14:04.757Z,73.62
2023-05-13T00:16:31.193Z,74.75
2023-05-13T00:18:57.771Z,76.33
2023-05-13T00:21:24.370Z,76.22
2023-05-13T00:23:50.882Z,77.23
2023-05-13T00:26:17.538Z,76.82
2023-05-13T00:28:47.106Z,76.98
2023-05-13T00:31:13.598Z,77.46
2023-05-13T00:33:40.096Z,76.56
2023-05-13T00:36:07.708Z,75.56
2023-05-13T00:38:34.307Z,75.18
2023-05-13T00:41:02.958Z,74.27
2023-05-13T00:43:29.790Z,74.59
2023-05-13T00:45:56.963Z,73.94
2023-05-13T00:48:25.027Z,74.23
2023-05-13T00:50:51.632Z,76.94
2023-05-13T00:53:18.350Z,76.93
2023-05-13T00:55:46.093Z,75.51
2023-05-13T00:58:13.764Z,76.33
2023-05-13T01:01:01.779Z,75.00
2023-05-13T01:04:09.252Z,74.49
2023-05-13T01:06:38.388Z,74.96
2023-05-13T01:09:38.280Z,75.10
2023-05-13T01:12:10.794Z,74.95
2023-05-13T01:14:44.363Z,74.37
2023-05-13T01:17:18.151Z,74.80
2023-05-13T01:19:49.502Z,75.03
2023-05-13T01:22:16.533Z,75.64
2023-05-13T01:24:43.152Z,75.75
2023-05-13T01:27:10.257Z,74.77
2023-05-13T01:29:37.655Z,75.43
2023-05-13T01:32:05.367Z,74.91
2023-05-13T01:34:34.288Z,75.07
2023-05-13T01:37:00.983Z,75.35
2023-05-13T01:39:29.850Z,75.20
2023-05-13T01:41:59.578Z,76.15
2023-05-13T01:44:26.843Z,77.12
2023-05-13T01:46:53.615Z,77.31
2023-05-13T01:49:20.454Z,76.74
2023-05-13T01:51:46.952Z,76.59
2023-05-13T01:54:13.494Z,77.00
2023-05-13T01:56:45.835Z,77.78
2023-05-13T01:59:12.568Z,77.28
2023-05-13T02:01:40.480Z,77.21
2023-05-13T02:04:07.231Z,77.05
2023-05-13T02:06:33.829Z,77.89
2023-05-13T02:09:00.313Z,78.13
2023-05-13T02:11:26.774Z,78.88
2023-05-13T02:13:56.482Z,78.12
2023-05-13T02:16:23.013Z,77.79
2023-05-13T02:18:49.706Z,78.41
2023-05-13T02:21:16.201Z,78.53
2023-05-13T02:23:42.724Z,78.86
2023-05-13T02:26:09.166Z,79.00
2023-05-13T02:28:36.918Z,80.07
2023-05-13T02:31:03.344Z,79.81
2023-05-13T02:33:29.854Z,80.17
2023-05-13T02:35:56.759Z,80.28
2023-05-13T02:38:23.536Z,80.10
2023-05-13T02:40:50.236Z,80.09
2023-05-13T02:43:16.779Z,80.34
2023-05-13T02:45:50.927Z,81.12
2023-05-13T02:48:17.447Z,81.20
2023-05-13T02:50:44.705Z,81.76
2023-05-13T02:53:13.771Z,82.14
2023-05-13T02:55:45.634Z,81.86
2023-05-13T02:58:13.072Z,81.29
2023-05-13T03:00:39.505Z,81.21
2023-05-13T03:03:06.083Z,81.08
2023-05-13T03:05:32.639Z,81.02
2023-05-13T03:07:59.223Z,80.67
2023-05-13T03:10:25.901Z,81.25
2023-05-13T03:12:52.380Z,81.45
2023-05-13T03:15:19.145Z,81.24
2023-05-13T03:17:45.743Z,81.95
2023-05-13T03:20:12.503Z,82.41
2023-05-13T03:22:38.978Z,82.77
2023-05-13T03:25:06.942Z,82.28
2023-05-13T03:27:40.577Z,83.08
2023-05-13T03:30:08.686Z,82.52
2023-05-13T03:32:42.421Z,83.16
2023-05-13T03:35:09.190Z,83.26
2023-05-13T03:37:37.314Z,83.87
2023-05-13T03:40:05.176Z,83.74
2023-05-13T03:42:32.207Z,83.88
2023-05-13T03:45:01.765Z,84.07
2023-05-13T03:47:28.534Z,83.75
2023-05-13T03:49:59.792Z,84.38
2023-05-13T03:52:26.493Z,84.75
2023-05-13T03:54:53.251Z,85.29
2023-05-13T03:57:19.673Z,85.02
2023-05-13T03:59:46.449Z,84.54
2023-05-13T04:02:13.160Z,84.63
2023-05-13T04:04:39.726Z,84.95
2023-05-13T04:07:06.218Z,85.06
2023-05-13T04:09:32.640Z,85.26
2023-05-13T04:11:59.075Z,85.54
2023-05-13T04:14:25.658Z,84.99
2023-05-13T04:16:52.119Z,85.50
2023-05-13T04:19:18.589Z,85.48
2023-05-13T04:21:45.209Z,85.61
2023-05-13T04:24:11.727Z,85.10
2023-05-13T04:26:38.735Z,84.98
2023-05-13T04:29:05.282Z,85.00
2023-05-13T04:31:31.768Z,84.85
2023-05-13T04:33:58.260Z,85.16
2023-05-13T04:36:25.277Z,84.68
2023-05-13T04:38:52.783Z,84.95
2023-05-13T04:41:19.215Z,84.29
2023-05-13T04:43:46.146Z,84.57
2023-05-13T04:46:12.707Z,84.60
2023-05-13T04:48:39.140Z,84.00
2023-05-13T04:51:05.992Z,84.31
2023-05-13T04:53:32.978Z,83.34
2023-05-13T04:56:02.258Z,83.55
2023-05-13T04:58:29.921Z,83.11
2023-05-13T05:00:57.323Z,82.83
2023-05-13T05:03:24.600Z,82.65
2023-05-13T05:05:51.165Z,82.11
2023-05-13T05:08:18.356Z,82.64
2023-05-13T05:10:46.742Z,82.02
2023-05-13T05:13:14.183Z,81.94
2023-05-13T05:15:41.709Z,82.03
2023-05-13T05:18:09.856Z,81.12
2023-05-13T05:20:38.343Z,80.42
2023-05-13T05:23:08.972Z,80.67
2023-05-13T05:25:35.722Z,80.62
2023-05-13T05:28:04.926Z,79.93
2023-05-13T05:30:39.256Z,80.04
2023-05-13T05:33:11.048Z,79.92
2023-05-13T05:35:39.655Z,79.98
2023-05-13T05:38:09.008Z,79.30
2023-05-13T05:40:38.825Z,79.03
2023-05-13T05:43:05.346Z,78.84
2023-05-13T05:45:31.827Z,78.94
2023-05-13T05:47:58.475Z,79.04
2023-05-13T05:50:25.057Z,78.39
2023-05-13T05:52:51.797Z,77.60
2023-05-13T05:55:18.526Z,68.89
2023-05-13T05:57:45.013Z,63.97
2023-05-13T06:00:12.519Z,67.30
2023-05-13T06:02:42.514Z,70.02
2023-05-13T06:05:10.034Z,71.00
2023-05-13T06:07:38.549Z,68.99
2023-05-13T06:10:06.417Z,61.01
2023-05-13T06:12:34.874Z,55.32
2023-05-13T06:15:01.933Z,52.01
2023-05-13T06:17:28.389Z,49.59
2023-05-13T06:19:55.038Z,46.14
2023-05-13T06:22:21.525Z,43.59
2023-05-13T06:24:49.004Z,42.28
2023-05-13T06:27:15.621Z,42.40
2023-05-13T06:29:43.040Z,40.91
2023-05-13T06:32:09.570Z,39.99
2023-05-13T06:34:36.196Z,39.57
2023-05-13T06:37:04.020Z,37.28
2023-05-13T06:39:30.533Z,37.85
2023-05-13T06:41:57.018Z,37.59
2023-05-13T06:44:29.390Z,36.69
2023-05-13T06:46:55.942Z,35.14
2023-05-13T06:49:24.525Z,35.22
2023-05-13T06:51:51.464Z,35.69
2023-05-13T06:54:19.550Z,36.07
2023-05-13T06:56:45.989Z,35.59
2023-05-13T06:59:15.392Z,35.32
2023-05-13T07:01:42.288Z,34.83
2023-05-13T07:04:08.857Z,34.10
2023-05-13T07:06:37.080Z,34.80
2023-05-13T07:09:08.166Z,33.21
2023-05-13T07:11:35.889Z,32.94
2023-05-13T07:14:02.516Z,34.78
2023-05-13T07:16:31.640Z,33.13
2023-05-13T07:18:58.134Z,33.00
2023-05-13T07:21:24.597Z,32.52
2023-05-13T07:23:51.041Z,31.76
2023-05-13T07:26:17.505Z,31.88
2023-05-13T07:28:43.962Z,32.95
2023-05-13T07:31:10.624Z,32.48
2023-05-13T07:33:37.153Z,33.34
2023-05-13T07:36:03.953Z,33.84
2023-05-13T07:38:30.745Z,32.44
2023-05-13T07:40:58.367Z,32.19
2023-05-13T07:43:24.797Z,31.09
2023-05-13T07:45:51.532Z,33.51
2023-05-13T07:48:18.652Z,30.07
2023-05-13T07:50:46.218Z,34.15
2023-05-13T07:53:13.357Z,33.51
2023-05-13T07:55:39.821Z,31.65
2023-05-13T07:58:06.612Z,34.30
2023-05-13T08:00:33.390Z,30.81
2023-05-13T08:02:59.965Z,33.22
2023-05-13T08:05:26.769Z,34.60
2023-05-13T08:07:53.252Z,33.37
2023-05-13T08:10:19.708Z,36.32
2023-05-13T08:12:50.944Z,34.32
2023-05-13T08:15:17.685Z,33.60
2023-05-13T08:17:44.198Z,35.49
2023-05-13T08:20:11.472Z,33.68
2023-05-13T08:22:37.900Z,36.43
2023-05-13T08:25:05.600Z,35.08
2023-05-13T08:27:32.245Z,38.03
2023-05-13T08:29:58.659Z,35.15
2023-05-13T08:32:25.164Z,39.22
2023-05-13T08:34:54.423Z,39.69
2023-05-13T08:37:20.974Z,37.15
2023-05-13T08:39:47.435Z,38.21
2023-05-13T08:42:19.034Z,38.77
2023-05-13T08:44:47.064Z,39.73
2023-05-13T08:47:37.054Z,38.50
2023-05-13T08:50:03.949Z,39.83
2023-05-13T08:52:31.549Z,36.38
2023-05-13T08:55:00.314Z,38.38
2023-05-13T08:57:27.651Z,37.78
2023-05-13T08:59:54.089Z,38.50
2023-05-13T09:02:20.781Z,40.39
2023-05-13T09:04:52.936Z,40.24
2023-05-13T09:07:19.518Z,37.37
2023-05-13T09:09:46.140Z,41.02
2023-05-13T09:12:12.704Z,36.62
2023-05-13T09:14:39.888Z,35.04
2023-05-13T09:17:07.768Z,37.02
2023-05-13T09:19:35.635Z,36.55
2023-05-13T09:22:02.633Z,37.30
2023-05-13T09:24:29.175Z,35.93
2023-05-13T09:26:55.628Z,36.31
2023-05-13T09:29:29.045Z,35.78
2023-05-13T09:32:00.271Z,36.98
2023-05-13T09:34:32.136Z,36.00
2023-05-13T09:37:06.864Z,36.92
2023-05-13T09:39:43.541Z,35.44
2023-05-13T09:42:19.496Z,37.22
2023-05-13T09:44:47.163Z,37.87
2023-05-13T09:47:14.368Z,37.18
2023-05-13T09:49:41.920Z,36.61
2023-05-13T09:52:11.580Z,36.87
2023-05-13T09:54:38.744Z,39.33
2023-05-13T09:57:05.971Z,38.28
2023-05-13T09:59:35.560Z,36.02
2023-05-13T10:02:07.068Z,37.02
2023-05-13T10:04:34.137Z,36.92
2023-05-13T10:07:03.596Z,36.40
2023-05-13T10:09:36.278Z,39.87
2023-05-13T10:12:06.693Z,35.76
2023-05-13T10:14:33.401Z,38.59
2023-05-13T10:17:00.246Z,37.94
2023-05-13T10:19:27.067Z,38.78
2023-05-13T10:21:54.191Z,35.96
2023-05-13T10:24:22.264Z,38.42
2023-05-13T10:26:52.368Z,39.55
2023-05-13T10:29:19.418Z,35.48
2023-05-13T10:31:47.849Z,37.25
2023-05-13T10:34:14.422Z,37.33
2023-05-13T10:36:48.180Z,34.94
2023-05-13T10:39:20.393Z,36.99
2023-05-13T10:42:34.654Z,36.86
2023-05-13T10:45:01.455Z,34.37
2023-05-13T10:47:32.618Z,34.72
2023-05-13T10:50:04.562Z,38.42
2023-05-13T10:52:49.492Z,37.04
2023-05-13T10:55:21.812Z,36.82
2023-05-13T10:58:08.737Z,34.03
2023-05-13T11:00:35.861Z,36.22
2023-05-13T11:03:20.432Z,38.16
2023-05-13T11:05:59.745Z,35.53
2023-05-13T11:08:44.487Z,38.18
2023-05-13T11:11:23.251Z,35.65
2023-05-13T11:14:19.243Z,37.43
2023-05-13T11:16:48.380Z,34.20
2023-05-13T11:19:27.782Z,36.62
2023-05-13T11:21:56.503Z,34.76
2023-05-13T11:24:23.696Z,36.18
2023-05-13T11:26:52.884Z,36.14
2023-05-13T11:29:33.585Z,34.63
2023-05-13T11:32:01.886Z,35.54
2023-05-13T11:34:29.276Z,35.88
2023-05-13T11:37:10.828Z,35.20
2023-05-13T11:39:41.398Z,35.00
2023-05-13T11:42:11.550Z,37.03
2023-05-13T11:44:46.684Z,35.90
2023-05-13T11:47:13.240Z,35.89
2023-05-13T11:49:44.895Z,35.77
2023-05-13T11:52:12.237Z,35.78
2023-05-13T11:54:44.677Z,35.59
2023-05-13T11:57:17.294Z,36.59
2023-05-13T11:59:55.767Z,35.46
2023-05-13T12:02:25.741Z,36.26
2023-05-13T12:04:55.237Z,33.80
2023-05-13T12:07:25.812Z,35.52
2023-05-13T12:09:55.316Z,35.11
2023-05-13T12:12:22.044Z,35.57
2023-05-13T12:14:52.916Z,36.25
2023-05-13T12:17:20.671Z,33.24
2023-05-13T12:20:05.952Z,35.43
2023-05-13T12:22:33.316Z,34.39
2023-05-13T12:25:01.773Z,31.31
2023-05-13T12:27:28.238Z,33.54
2023-05-13T12:29:55.562Z,32.28
2023-05-13T12:32:24.468Z,30.41
2023-05-13T12:34:51.585Z,31.32
2023-05-13T12:37:18.218Z,28.85
2023-05-13T12:39:44.783Z,28.16
2023-05-13T12:42:18.285Z,28.76
2023-05-13T12:44:45.848Z,29.39
2023-05-13T12:47:15.220Z,29.76
2023-05-13T12:49:54.789Z,29.04
2023-05-13T12:52:21.884Z,29.05
2023-05-13T12:54:48.457Z,29.29
2023-05-13T12:57:18.915Z,30.45
2023-05-13T12:59:45.893Z,31.15
2023-05-13T13:02:15.780Z,29.49
2023-05-13T13:04:42.364Z,29.79
2023-05-13T13:07:12.541Z,29.46
2023-05-13T13:09:41.254Z,30.92
2023-05-13T13:12:07.842Z,31.28
2023-05-13T13:14:34.304Z,34.99
2023-05-13T13:17:10.032Z,30.95
2023-05-13T13:19:36.550Z,31.08
2023-05-13T13:22:03.060Z,30.74
2023-05-13T13:24:29.670Z,31.90
2023-05-13T13:27:04.792Z,33.12
2023-05-13T13:29:31.259Z,31.84
2023-05-13T13:31:57.827Z,31.69
2023-05-13T13:34:24.316Z,30.88
2023-05-13T13:36:50.818Z,30.78
2023-05-13T13:39:19.291Z,32.47
2023-05-13T13:41:47.219Z,32.25
2023-05-13T13:44:13.803Z,31.55
2023-05-13T13:46:40.352Z,31.47
2023-05-13T13:49:22.838Z,31.90
2023-05-13T13:51:51.189Z,31.11
2023-05-13T13:54:17.634Z,29.90
2023-05-13T13:56:44.181Z,32.19
2023-05-13T13:59:10.688Z,30.20
2023-05-13T14:01:37.353Z,30.10
2023-05-13T14:04:15.946Z,29.97
2023-05-13T14:06:42.995Z,30.31
2023-05-13T14:09:10.518Z,31.51
2023-05-13T14:11:37.367Z,31.50
2023-05-13T14:14:04.320Z,30.53
2023-05-13T14:16:31.095Z,34.82
2023-05-13T14:18:57.703Z,31.94
2023-05-13T14:21:24.210Z,30.27
2023-05-13T14:23:50.738Z,34.21
2023-05-13T14:26:17.360Z,31.56
2023-05-13T14:28:44.067Z,31.65
2023-05-13T14:31:10.545Z,29.55
2023-05-13T14:33:37.151Z,31.31
2023-05-13T14:36:04.044Z,28.85
2023-05-13T14:38:31.380Z,30.05
2023-05-13T14:40:58.232Z,31.27
2023-05-13T14:43:24.926Z,31.23
2023-05-13T14:45:54.600Z,31.28
2023-05-13T14:48:21.724Z,31.88
2023-05-13T14:50:48.271Z,29.50
2023-05-13T14:53:14.922Z,29.98
2023-05-13T14:55:41.390Z,30.54
2023-05-13T14:58:10.078Z,31.75
2023-05-13T15:00:41.444Z,31.81
2023-05-13T15:03:08.290Z,30.55
2023-05-13T15:05:35.059Z,29.75
2023-05-13T15:08:01.550Z,31.90
2023-05-13T15:10:28.015Z,29.50
2023-05-13T15:12:54.639Z,29.28
2023-05-13T15:15:23.237Z,30.51
2023-05-13T15:17:49.886Z,30.48
2023-05-13T15:20:16.454Z,30.28
2023-05-13T15:22:43.898Z,30.14
2023-05-13T15:25:10.760Z,30.38
2023-05-13T15:27:37.239Z,30.79
2023-05-13T15:30:03.986Z,30.53
2023-05-13T15:32:30.498Z,30.25
2023-05-13T15:34:57.075Z,31.54
2023-05-13T15:37:23.511Z,30.24
2023-05-13T15:39:49.994Z,29.04
2023-05-13T15:42:17.521Z,29.03
2023-05-13T15:44:45.513Z,30.01
2023-05-13T15:47:12.675Z,30.06
2023-05-13T15:49:39.150Z,30.68
2023-05-13T15:52:07.188Z,29.29
2023-05-13T15:54:34.385Z,29.99
2023-05-13T15:57:00.992Z,29.56
2023-05-13T15:59:27.460Z,30.74
2023-05-13T16:01:54.087Z,35.04
2023-05-13T16:04:20.762Z,36.93
2023-05-13T16:06:47.413Z,38.77
2023-05-13T16:09:13.897Z,41.39
2023-05-13T16:11:40.350Z,41.56
2023-05-13T16:14:08.566Z,42.93
2023-05-13T16:16:35.123Z,42.60
2023-05-13T16:19:03.545Z,44.90
2023-05-13T16:21:31.570Z,43.48
2023-05-13T16:23:58.173Z,43.54
2023-05-13T16:26:24.717Z,44.24
2023-05-13T16:28:51.625Z,45.69
2023-05-13T16:31:18.148Z,46.63
2023-05-13T16:33:44.608Z,46.09
2023-05-13T16:36:11.903Z,46.55
2023-05-13T16:38:41.219Z,45.57
2023-05-13T16:41:07.986Z,45.65
2023-05-13T16:43:34.428Z,46.75
2023-05-13T16:46:01.076Z,46.87
2023-05-13T16:48:27.627Z,47.38
2023-05-13T16:50:54.269Z,46.56
2023-05-13T16:53:23.275Z,46.17
2023-05-13T16:55:50.214Z,47.84
2023-05-13T16:58:16.995Z,46.91
2023-05-13T17:00:43.964Z,47.79
2023-05-13T17:03:13.186Z,47.90
2023-05-13T17:05:39.854Z,47.16
2023-05-13T17:08:06.320Z,46.99
2023-05-13T17:10:32.852Z,46.65
2023-05-13T17:12:59.327Z,46.64
2023-05-13T17:15:26.182Z,47.47
2023-05-13T17:17:52.721Z,47.17
2023-05-13T17:20:20.522Z,47.32
2023-05-13T17:22:47.508Z,48.28
2023-05-13T17:25:14.601Z,50.24
2023-05-13T17:27:41.257Z,49.29
2023-05-13T17:30:08.566Z,49.88
2023-05-13T17:32:35.521Z,51.56
2023-05-13T17:35:02.957Z,52.01
2023-05-13T17:37:29.482Z,52.81
2023-05-13T17:39:57.529Z,53.92
2023-05-13T17:42:23.954Z,53.02
2023-05-13T17:44:50.514Z,53.71
2023-05-13T17:47:17.115Z,54.70
2023-05-13T17:49:43.564Z,54.35
2023-05-13T17:52:09.993Z,54.79
2023-05-13T17:54:36.946Z,54.50
2023-05-13T17:57:03.623Z,56.36
2023-05-13T17:59:30.097Z,55.46
2023-05-13T18:01:56.506Z,57.28
2023-05-13T18:04:22.901Z,55.77
2023-05-13T18:06:49.929Z,56.87
2023-05-13T18:09:16.543Z,55.89
2023-05-13T18:11:43.069Z,57.85
2023-05-13T18:14:09.507Z,58.66
2023-05-13T18:16:36.007Z,57.80
2023-05-13T18:19:02.488Z,57.53
2023-05-13T18:21:29.209Z,57.28
2023-05-13T18:23:56.070Z,57.90
2023-05-13T18:26:23.478Z,58.34
2023-05-13T18:28:50.004Z,59.66
2023-05-13T18:31:16.659Z,59.63
2023-05-13T18:33:43.284Z,59.65
2023-05-13T18:36:10.325Z,58.93
2023-05-13T18:38:36.959Z,58.25
2023-05-13T18:41:03.645Z,59.49
2023-05-13T18:43:30.491Z,58.67
2023-05-13T18:45:57.853Z,59.88
2023-05-13T18:48:24.983Z,59.33
2023-05-13T18:50:53.008Z,60.06
2023-05-13T18:53:19.897Z,60.01
2023-05-13T18:55:46.519Z,60.53
2023-05-13T18:58:13.753Z,60.54
2023-05-13T19:00:40.207Z,61.21
2023-05-13T19:03:06.842Z,60.44
2023-05-13T19:05:33.556Z,61.05
2023-05-13T19:08:00.509Z,60.74
2023-05-13T19:10:27.281Z,60.53
2023-05-13T19:12:53.772Z,61.53
2023-05-13T19:15:25.238Z,61.16
2023-05-13T19:17:52.466Z,61.65
2023-05-13T19:20:18.992Z,61.90
2023-05-13T19:22:45.492Z,61.26
2023-05-13T19:25:11.972Z,63.18
2023-05-13T19:27:38.884Z,62.81
2023-05-13T19:30:06.352Z,62.93
2023-05-13T19:32:36.069Z,62.39
2023-05-13T19:35:03.655Z,62.25
2023-05-13T19:37:30.920Z,63.19
2023-05-13T19:39:57.461Z,63.05
2023-05-13T19:42:23.931Z,64.84
2023-05-13T19:44:50.455Z,63.43
2023-05-13T19:47:16.994Z,63.74
2023-05-13T19:49:43.415Z,63.80
2023-05-13T19:52:09.913Z,65.77
2023-05-13T19:54:36.484Z,65.12
2023-05-13T19:57:03.064Z,64.84
2023-05-13T19:59:29.726Z,64.78
2023-05-13T20:01:56.224Z,64.75
2023-05-13T20:04:22.754Z,64.38
2023-05-13T20:06:49.289Z,65.19
2023-05-13T20:09:15.789Z,64.82
2023-05-13T20:11:42.307Z,64.01
2023-05-13T20:14:08.838Z,64.23
2023-05-13T20:16:35.921Z,64.51
2023-05-13T20:19:02.412Z,65.15
2023-05-13T20:21:29.149Z,64.79
2023-05-13T20:23:56.436Z,66.42
2023-05-13T20:26:25.832Z,67.20
2023-05-13T20:28:52.732Z,66.66
2023-05-13T20:31:19.240Z,66.57
2023-05-13T20:33:45.765Z,67.54
2023-05-13T20:36:12.289Z,67.79
2023-05-13T20:38:38.824Z,68.83
2023-05-13T20:41:05.539Z,68.76
2023-05-13T20:43:34.591Z,68.68
2023-05-13T20:46:02.671Z,68.52
2023-05-13T20:48:31.906Z,69.19
2023-05-13T20:50:59.396Z,69.33
2023-05-13T20:53:25.899Z,69.89
2023-05-13T20:55:52.437Z,70.31
2023-05-13T20:58:18.895Z,70.18
2023-05-13T21:00:45.369Z,70.33
2023-05-13T21:03:12.125Z,71.00
2023-05-13T21:05:38.610Z,70.20
2023-05-13T21:08:05.064Z,70.50
2023-05-13T21:10:31.478Z,71.05
2023-05-13T21:12:57.915Z,71.39
2023-05-13T21:15:24.485Z,71.12
2023-05-13T21:17:50.962Z,71.93
2023-05-13T21:20:17.594Z,71.39
2023-05-13T21:22:44.079Z,71.51
2023-05-13T21:25:10.704Z,71.47
2023-05-13T21:27:37.196Z,71.47
2023-05-13T21:30:04.655Z,71.78
2023-05-13T21:32:31.370Z,71.88
2023-05-13T21:34:57.856Z,72.51
2023-05-13T21:37:25.528Z,72.70
2023-05-13T21:39:52.075Z,72.40
2023-05-13T21:42:18.766Z,73.06
2023-05-13T21:44:45.375Z,72.98
2023-05-13T21:47:11.852Z,72.75
2023-05-13T21:49:38.336Z,72.95
2023-05-13T21:52:05.662Z,73.62
2023-05-13T21:54:32.107Z,73.05
2023-05-13T21:56:58.568Z,73.27
2023-05-13T21:59:25.045Z,73.24
2023-05-13T22:01:51.551Z,73.13
2023-05-13T22:04:18.067Z,72.97
2023-05-13T22:06:44.596Z,73.34
2023-05-13T22:09:11.135Z,72.68
2023-05-13T22:11:37.557Z,73.13
2023-05-13T22:14:04.033Z,73.67
2023-05-13T22:16:30.709Z,73.17
2023-05-13T22:18:59.913Z,72.77
2023-05-13T22:21:26.766Z,72.67
2023-05-13T22:23:53.253Z,72.84
2023-05-13T22:26:19.707Z,73.33
2023-05-13T22:28:48.423Z,73.32
2023-05-13T22:31:16.543Z,72.59
2023-05-13T22:33:44.251Z,72.94
2023-05-13T22:36:11.789Z,73.53
2023-05-13T22:38:38.803Z,73.71
2023-05-13T22:41:05.843Z,73.59
2023-05-13T22:43:32.754Z,73.47
2023-05-13T22:45:59.269Z,74.46
2023-05-13T22:48:26.648Z,74.59
2023-05-13T22:50:54.116Z,74.44
2023-05-13T22:53:20.653Z,74.60
2023-05-13T22:55:47.147Z,74.42
2023-05-13T22:58:13.572Z,74.60
2023-05-13T23:00:40.116Z,74.85
2023-05-13T23:03:06.543Z,75.02
2023-05-13T23:05:33.029Z,75.33
2023-05-13T23:07:59.618Z,74.89
2023-05-13T23:10:26.038Z,75.56
2023-05-13T23:12:52.650Z,75.46
2023-05-13T23:15:19.041Z,76.13
2023-05-13T23:17:45.700Z,76.11
2023-05-13T23:20:12.353Z,76.06
2023-05-13T23:22:38.932Z,76.14
2023-05-13T23:25:06.700Z,76.38
2023-05-13T23:27:33.174Z,77.37
2023-05-13T23:29:59.596Z,76.60
2023-05-13T23:32:26.110Z,76.68
2023-05-13T23:34:52.655Z,77.11
2023-05-13T23:37:20.066Z,76.27
2023-05-13T23:39:46.522Z,76.65
2023-05-13T23:42:12.971Z,77.22
2023-05-13T23:44:39.530Z,77.17
2023-05-13T23:47:06.034Z,77.39
2023-05-13T23:49:32.484Z,77.60
2023-05-13T23:51:58.957Z,77.38
2023-05-13T23:54:25.488Z,77.64
2023-05-13T23:56:51.882Z,77.52
2023-05-13T23:59:18.337Z,78.06
